createdAt,value
2022-11-01T00:00:57.143Z,3.15
2022-11-01T00:03:27.660Z,3.53
2022-11-01T00:06:00.531Z,3.45
2022-11-01T00:08:31.151Z,8.65
2022-11-01T00:11:08.788Z,3.35
2022-11-01T00:13:38.852Z,2.53
2022-11-01T00:16:08.938Z,7.60
2022-11-01T00:18:39.380Z,4.05
2022-11-01T00:21:10.618Z,4.30
2022-11-01T00:23:41.568Z,3.33
2022-11-01T00:26:15.814Z,3.38
2022-11-01T00:28:46.042Z,3.13
2022-11-01T00:31:16.619Z,3.45
2022-11-01T00:33:47.438Z,3.88
2022-11-01T00:36:18.217Z,6.22
2022-11-01T00:38:54.442Z,6.03
2022-11-01T00:41:24.594Z,6.95
2022-11-01T00:43:55.362Z,3.92
2022-11-01T00:46:25.698Z,5.43
2022-11-01T00:48:55.715Z,9.15
2022-11-01T00:51:26.094Z,7.03
2022-11-01T00:53:57.299Z,5.45
2022-11-01T00:56:27.534Z,4.45
2022-11-01T00:58:57.453Z,5.45
2022-11-01T01:01:27.829Z,9.00
2022-11-01T01:04:06.877Z,5.90
2022-11-01T01:06:37.342Z,8.50
2022-11-01T01:09:13.939Z,4.40
2022-11-01T01:11:43.984Z,6.68
2022-11-01T01:14:14.840Z,8.68
2022-11-01T01:16:44.844Z,11.02
2022-11-01T01:19:14.831Z,13.57
2022-11-01T01:21:45.117Z,6.57
2022-11-01T01:24:16.149Z,10.50
2022-11-01T01:26:46.288Z,8.50
2022-11-01T01:29:17.513Z,5.03
2022-11-01T01:31:47.594Z,6.05
2022-11-01T01:34:17.969Z,6.22
2022-11-01T01:36:48.968Z,9.40
2022-11-01T01:39:19.375Z,5.63
2022-11-01T01:41:58.427Z,6.55
2022-11-01T01:44:53.281Z,7.28
2022-11-01T01:47:32.429Z,8.48
2022-11-01T01:50:05.253Z,5.47
2022-11-01T01:52:51.184Z,10.43
2022-11-01T01:55:23.631Z,7.22
2022-11-01T01:58:01.057Z,4.80
2022-11-01T02:00:32.909Z,4.00
2022-11-01T02:03:04.262Z,7.03
2022-11-01T02:08:10.190Z,8.37
2022-11-01T02:10:40.211Z,6.60
2022-11-01T02:13:14.771Z,6.55
2022-11-01T02:16:14.283Z,7.55
2022-11-01T02:18:44.299Z,4.97
2022-11-01T02:21:24.743Z,4.35
2022-11-01T02:24:20.803Z,4.00
2022-11-01T02:27:38.136Z,5.65
2022-11-01T02:30:20.105Z,8.88
2022-11-01T02:33:20.337Z,6.60
2022-11-01T02:35:59.395Z,4.57
2022-11-01T02:38:49.068Z,8.52
2022-11-01T02:41:26.463Z,5.70
2022-11-01T02:43:56.982Z,8.00
2022-11-01T02:46:45.470Z,5.03
2022-11-01T02:49:19.167Z,3.80
2022-11-01T02:51:49.256Z,6.13
2022-11-01T02:54:30.202Z,5.68
2022-11-01T02:57:07.157Z,4.78
2022-11-01T02:59:48.134Z,5.05
2022-11-01T03:02:40.737Z,4.75
2022-11-01T03:05:43.146Z,3.05
2022-11-01T03:08:14.823Z,2.85
2022-11-01T03:11:07.596Z,7.13
2022-11-01T03:13:48.590Z,3.37
2022-11-01T03:16:30.641Z,5.82
2022-11-01T03:19:15.320Z,3.78
2022-11-01T03:22:09.401Z,4.95
2022-11-01T03:24:45.773Z,3.35
2022-11-01T03:27:39.411Z,3.05
2022-11-01T03:32:49.306Z,7.22
2022-11-01T03:35:21.504Z,4.82
2022-11-01T03:37:52.544Z,2.70
2022-11-01T03:40:22.727Z,3.85
2022-11-01T03:42:53.435Z,4.18
2022-11-01T03:45:26.155Z,3.10
2022-11-01T03:47:56.225Z,5.28
2022-11-01T03:50:30.678Z,5.20
2022-11-01T03:53:00.715Z,4.97
2022-11-01T03:55:30.729Z,4.85
2022-11-01T03:58:01.707Z,2.20
2022-11-01T04:00:34.766Z,2.78
2022-11-01T04:03:05.189Z,2.17
2022-11-01T04:05:35.745Z,2.28
2022-11-01T04:08:06.565Z,1.83
2022-11-01T04:10:37.633Z,2.47
2022-11-01T04:13:07.854Z,1.38
2022-11-01T04:15:56.033Z,1.50
2022-11-01T04:18:44.427Z,1.10
2022-11-01T04:21:18.212Z,1.58
2022-11-01T04:23:48.630Z,2.35
2022-11-01T04:26:21.690Z,2.72
2022-11-01T04:31:32.154Z,1.30
2022-11-01T04:34:02.477Z,1.55
2022-11-01T04:36:32.742Z,2.45
2022-11-01T04:39:02.774Z,3.05
2022-11-01T04:41:32.808Z,3.03
2022-11-01T04:44:02.801Z,2.67
2022-11-01T04:46:33.207Z,1.85
2022-11-01T04:49:03.365Z,1.92
2022-11-01T04:51:33.523Z,4.10
2022-11-01T04:54:03.628Z,3.47
2022-11-01T04:56:33.570Z,2.80
2022-11-01T04:59:03.607Z,3.00
2022-11-01T05:01:33.644Z,4.35
2022-11-01T05:04:03.774Z,2.08
2022-11-01T05:06:34.260Z,2.65
2022-11-01T05:09:04.521Z,5.28
2022-11-01T05:11:34.545Z,2.42
2022-11-01T05:14:04.755Z,2.45
2022-11-01T05:16:34.734Z,2.55
2022-11-01T05:19:04.820Z,2.80
2022-11-01T05:21:34.804Z,2.92
2022-11-01T05:24:06.195Z,4.32
2022-11-01T05:26:36.385Z,2.45
2022-11-01T05:29:13.409Z,2.47
2022-11-01T05:31:54.455Z,2.88
2022-11-01T05:34:24.584Z,2.85
2022-11-01T05:36:55.202Z,3.17
2022-11-01T05:39:25.277Z,3.70
2022-11-01T05:41:58.243Z,6.85
2022-11-01T05:44:31.704Z,2.97
2022-11-01T05:47:03.796Z,4.55
2022-11-01T05:49:33.977Z,2.35
2022-11-01T05:52:03.984Z,3.25
2022-11-01T05:54:33.995Z,2.10
2022-11-01T05:57:03.973Z,1.73
2022-11-01T05:59:36.375Z,3.42
2022-11-01T06:04:36.955Z,3.22
2022-11-01T06:07:06.989Z,2.25
2022-11-01T06:09:37.192Z,2.60
2022-11-01T06:12:07.796Z,4.70
2022-11-01T06:14:37.862Z,2.63
2022-11-01T06:17:07.974Z,2.38
2022-11-01T06:19:38.106Z,2.67
2022-11-01T06:22:08.519Z,3.47
2022-11-01T06:24:38.609Z,1.80
2022-11-01T06:27:12.479Z,1.50
2022-11-01T06:29:43.105Z,1.98
2022-11-01T06:32:13.364Z,3.65
2022-11-01T06:34:46.826Z,3.10
2022-11-01T06:37:17.118Z,2.20
2022-11-01T06:39:47.416Z,1.77
2022-11-01T06:42:17.944Z,1.75
2022-11-01T06:44:48.031Z,2.00
2022-11-01T06:47:18.139Z,2.92
2022-11-01T06:49:48.261Z,1.35
2022-11-01T06:52:18.265Z,1.77
2022-11-01T06:54:48.391Z,3.67
2022-11-01T06:57:18.896Z,2.88
2022-11-01T06:59:49.307Z,2.13
2022-11-01T07:02:20.209Z,2.30
2022-11-01T07:04:51.092Z,3.03
2022-11-01T07:07:21.273Z,1.42
2022-11-01T07:09:51.300Z,2.72
2022-11-01T07:12:21.374Z,3.33
2022-11-01T07:14:51.639Z,6.82
2022-11-01T07:17:21.839Z,7.97
2022-11-01T07:19:54.808Z,3.92
2022-11-01T07:22:25.684Z,9.27
2022-11-01T07:24:55.715Z,8.60
2022-11-01T07:27:25.772Z,1.80
2022-11-01T07:29:55.845Z,2.47
2022-11-01T07:32:25.924Z,6.50
2022-11-01T07:34:55.938Z,12.60
2022-11-01T07:37:29.715Z,5.03
2022-11-01T07:39:59.807Z,3.35
2022-11-01T07:42:29.975Z,3.85
2022-11-01T07:45:00.048Z,3.92
2022-11-01T07:47:30.181Z,6.50
2022-11-01T07:50:00.215Z,2.72
2022-11-01T07:52:30.310Z,2.10
2022-11-01T07:55:03.240Z,2.47
2022-11-01T07:57:33.264Z,3.13
2022-11-01T08:00:03.280Z,2.03
2022-11-01T08:02:42.534Z,2.78
2022-11-01T08:05:14.012Z,1.33
2022-11-01T08:07:44.523Z,1.67
2022-11-01T08:10:15.162Z,1.23
2022-11-01T08:12:48.124Z,3.05
2022-11-01T08:15:18.949Z,1.52
2022-11-01T08:17:51.319Z,0.90
2022-11-01T08:22:56.115Z,0.70
2022-11-01T08:25:26.071Z,0.50
2022-11-01T08:27:56.798Z,1.15
2022-11-01T08:30:27.121Z,0.55
2022-11-01T08:33:02.141Z,0.45
2022-11-01T08:35:32.841Z,0.90
2022-11-01T08:38:04.590Z,0.50
2022-11-01T08:40:34.952Z,0.98
2022-11-01T08:43:05.374Z,1.23
2022-11-01T08:45:35.607Z,0.30
2022-11-01T08:48:06.517Z,0.28
2022-11-01T08:50:36.707Z,0.35
2022-11-01T08:53:11.222Z,0.40
2022-11-01T08:55:44.624Z,0.30
2022-11-01T08:58:15.232Z,0.60
2022-11-01T09:00:46.291Z,0.50
2022-11-01T09:03:17.029Z,0.43
2022-11-01T09:05:47.232Z,0.52
2022-11-01T09:08:17.917Z,0.35
2022-11-01T09:10:48.072Z,0.57
2022-11-01T09:13:22.108Z,2.47
2022-11-01T09:15:52.325Z,1.40
2022-11-01T09:18:23.285Z,0.88
2022-11-01T09:20:58.003Z,4.32
2022-11-01T09:23:28.361Z,3.88
2022-11-01T09:26:07.332Z,3.90
2022-11-01T09:28:38.339Z,1.38
2022-11-01T09:31:20.735Z,2.10
2022-11-01T09:33:51.761Z,1.58
2022-11-01T09:36:22.428Z,2.22
2022-11-01T09:38:53.671Z,3.85
2022-11-01T09:41:48.809Z,1.52
2022-11-01T09:44:28.072Z,1.90
2022-11-01T09:47:07.379Z,1.55
2022-11-01T09:49:41.566Z,1.35
2022-11-01T09:52:13.453Z,1.30
2022-11-01T09:54:43.514Z,1.70
2022-11-01T09:57:21.173Z,1.52
2022-11-01T09:59:58.619Z,1.30
2022-11-01T10:03:03.428Z,2.40
2022-11-01T10:05:40.113Z,2.88
2022-11-01T10:08:27.660Z,3.05
2022-11-01T10:11:14.782Z,3.00
2022-11-01T10:14:03.094Z,4.32
2022-11-01T10:16:42.703Z,1.77
2022-11-01T10:19:17.414Z,2.13
2022-11-01T10:21:50.506Z,3.40
2022-11-01T10:24:32.304Z,3.03
2022-11-01T10:27:09.494Z,3.13
2022-11-01T10:29:52.185Z,5.95
2022-11-01T10:33:05.366Z,2.20
2022-11-01T10:36:06.043Z,2.15
2022-11-01T10:39:37.008Z,3.50
2022-11-01T10:41:53.551Z,3.45
2022-11-01T10:44:33.413Z,7.18
2022-11-01T10:47:06.101Z,12.38
2022-11-01T10:50:06.153Z,18.83
2022-11-01T10:52:59.408Z,20.77
2022-11-01T10:55:34.858Z,16.58
2022-11-01T10:58:09.076Z,22.95
2022-11-01T11:03:35.746Z,20.77
2022-11-01T11:06:07.448Z,18.40
2022-11-01T11:08:38.811Z,26.15
2022-11-01T11:11:18.689Z,14.50
2022-11-01T11:13:54.412Z,19.15
2022-11-01T11:16:46.019Z,15.50
2022-11-01T11:19:26.438Z,19.35
2022-11-01T11:21:56.692Z,16.70
2022-11-01T11:24:35.083Z,16.05
2022-11-01T11:27:06.120Z,14.20
2022-11-01T11:29:50.212Z,20.33
2022-11-01T11:32:28.075Z,12.70
2022-11-01T11:34:59.574Z,16.70
2022-11-01T11:37:31.763Z,18.05
2022-11-01T11:40:20.861Z,23.70
2022-11-01T11:42:52.542Z,23.98
2022-11-01T11:45:30.340Z,17.98
2022-11-01T11:48:18.091Z,13.90
2022-11-01T11:50:48.874Z,16.20
2022-11-01T11:53:24.144Z,13.55
2022-11-01T11:56:15.314Z,10.60
2022-11-01T11:58:53.365Z,10.23
2022-11-01T12:01:30.021Z,14.63
2022-11-01T12:04:17.297Z,8.85
2022-11-01T12:06:47.846Z,5.18
2022-11-01T12:09:49.112Z,10.55
2022-11-01T12:12:30.245Z,7.95
2022-11-01T12:15:01.985Z,6.70
2022-11-01T12:17:37.651Z,6.68
2022-11-01T12:20:21.729Z,5.05
2022-11-01T12:23:15.544Z,6.07
2022-11-01T12:25:45.869Z,6.70
2022-11-01T12:28:41.938Z,6.40
2022-11-01T12:31:21.724Z,6.07
2022-11-01T12:34:16.951Z,3.17
2022-11-01T12:37:20.564Z,3.05
2022-11-01T12:39:58.315Z,5.15
2022-11-01T12:42:38.288Z,4.93
2022-11-01T12:45:31.451Z,3.90
2022-11-01T12:48:32.172Z,4.90
2022-11-01T12:51:19.433Z,2.80
2022-11-01T12:54:00.701Z,2.58
2022-11-01T12:56:30.634Z,3.03
2022-11-01T12:59:00.603Z,2.75
2022-11-01T13:02:01.996Z,2.92
2022-11-01T13:04:40.930Z,3.45
2022-11-01T13:07:23.328Z,3.67
2022-11-01T13:10:27.196Z,3.80
2022-11-01T13:13:21.568Z,4.68
2022-11-01T13:16:04.798Z,5.53
2022-11-01T13:21:39.445Z,4.90
2022-11-01T13:24:19.171Z,6.17
2022-11-01T13:26:57.078Z,5.45
2022-11-01T13:30:01.477Z,5.13
2022-11-01T13:32:50.019Z,5.15
2022-11-01T13:35:39.527Z,4.65
2022-11-01T13:38:30.724Z,5.43
2022-11-01T13:41:09.722Z,6.45
2022-11-01T13:43:45.304Z,5.82
2022-11-01T13:46:36.709Z,6.28
2022-11-01T13:49:20.937Z,5.18
2022-11-01T13:52:10.241Z,7.28
2022-11-01T13:54:43.890Z,4.78
2022-11-01T13:57:15.701Z,4.80
2022-11-01T13:59:55.245Z,4.25
2022-11-01T14:02:25.474Z,5.75
2022-11-01T14:05:03.086Z,5.88
2022-11-01T14:07:41.787Z,5.55
2022-11-01T14:10:23.878Z,5.22
2022-11-01T14:13:09.542Z,6.25
2022-11-01T14:15:57.943Z,5.72
2022-11-01T14:18:30.006Z,3.78
2022-11-01T14:21:00.287Z,6.22
2022-11-01T14:23:30.421Z,4.53
2022-11-01T14:26:22.446Z,5.53
2022-11-01T14:28:56.619Z,6.97
2022-11-01T14:31:30.840Z,5.43
2022-11-01T14:34:03.308Z,4.60
2022-11-01T14:36:34.569Z,5.87
2022-11-01T14:39:15.716Z,7.30
2022-11-01T14:41:45.913Z,5.30
2022-11-01T14:44:27.737Z,5.53
2022-11-01T14:46:58.744Z,5.93
2022-11-01T14:49:37.897Z,3.97
2022-11-01T14:52:15.492Z,4.57
2022-11-01T14:55:13.592Z,3.72
2022-11-01T14:57:44.202Z,4.50
2022-11-01T15:00:29.675Z,5.68
2022-11-01T15:05:35.121Z,4.53
2022-11-01T15:08:05.211Z,7.25
2022-11-01T15:10:43.409Z,5.28
2022-11-01T15:13:13.979Z,4.55
2022-11-01T15:15:43.989Z,6.15
2022-11-01T15:18:18.283Z,5.95
2022-11-01T15:20:56.123Z,4.97
2022-11-01T15:23:33.385Z,5.93
2022-11-01T15:26:16.030Z,5.20
2022-11-01T15:29:08.370Z,6.10
2022-11-01T15:31:39.667Z,5.40
2022-11-01T15:34:33.243Z,8.90
2022-11-01T15:39:42.191Z,6.70
2022-11-01T15:42:20.675Z,6.88
2022-11-01T15:44:51.050Z,7.60
2022-11-01T15:47:23.276Z,7.40
2022-11-01T15:49:56.271Z,7.27
2022-11-01T15:52:31.481Z,6.75
2022-11-01T15:55:03.855Z,8.93
2022-11-01T15:57:41.297Z,5.05
2022-11-01T16:00:25.228Z,7.38
2022-11-01T16:03:02.648Z,7.95
2022-11-01T16:05:37.765Z,6.50
2022-11-01T16:08:09.254Z,7.50
2022-11-01T16:10:39.340Z,6.85
2022-11-01T16:13:09.276Z,7.78
2022-11-01T16:15:39.162Z,6.32
2022-11-01T16:18:18.752Z,5.80
2022-11-01T16:20:53.229Z,6.18
2022-11-01T16:23:33.387Z,5.53
2022-11-01T16:26:10.187Z,5.80
2022-11-01T16:28:45.823Z,7.13
2022-11-01T16:31:27.213Z,6.53
2022-11-01T16:33:57.938Z,7.47
2022-11-01T16:36:36.919Z,6.55
2022-11-01T16:39:28.408Z,5.78
2022-11-01T16:41:58.877Z,6.35
2022-11-01T16:44:29.040Z,9.13
2022-11-01T16:46:58.996Z,6.43
2022-11-01T16:49:30.720Z,6.00
2022-11-01T16:52:00.740Z,8.27
2022-11-01T16:54:30.723Z,7.07
2022-11-01T16:57:00.733Z,6.32
2022-11-01T16:59:37.933Z,5.50
2022-11-01T17:02:25.059Z,6.07
2022-11-01T17:05:25.328Z,5.30
2022-11-01T17:07:58.329Z,6.47
2022-11-01T17:10:28.333Z,7.10
2022-11-01T17:13:04.558Z,8.30
2022-11-01T17:15:50.667Z,5.63
2022-11-01T17:18:28.060Z,6.03
2022-11-01T17:20:58.104Z,7.03
2022-11-01T17:23:28.086Z,5.43
2022-11-01T17:25:58.073Z,5.82
2022-11-01T17:28:28.239Z,5.55
2022-11-01T17:30:58.200Z,6.78
2022-11-01T17:33:28.122Z,6.30
2022-11-01T17:35:59.041Z,5.72
2022-11-01T17:38:34.190Z,6.90
2022-11-01T17:41:05.631Z,6.00
2022-11-01T17:43:35.596Z,6.40
2022-11-01T17:46:07.211Z,6.43
2022-11-01T17:48:37.169Z,5.43
2022-11-01T17:51:07.913Z,6.35
2022-11-01T17:53:40.465Z,7.25
2022-11-01T17:56:10.474Z,8.38
2022-11-01T17:58:40.549Z,5.43
2022-11-01T18:01:10.752Z,6.78
2022-11-01T18:03:40.762Z,6.28
2022-11-01T18:06:10.701Z,5.68
2022-11-01T18:08:50.962Z,5.50
2022-11-01T18:11:36.068Z,5.45
2022-11-01T18:14:09.157Z,4.55
2022-11-01T18:16:48.325Z,3.83
2022-11-01T18:19:31.876Z,5.05
2022-11-01T18:22:20.018Z,3.92
2022-11-01T18:24:59.699Z,3.78
2022-11-01T18:27:37.567Z,4.30
2022-11-01T18:30:15.048Z,5.32
2022-11-01T18:32:53.373Z,4.30
2022-11-01T18:35:47.471Z,4.50
2022-11-01T18:38:32.889Z,4.30
2022-11-01T18:41:04.863Z,3.28
2022-11-01T18:43:40.043Z,4.55
2022-11-01T18:46:30.667Z,6.28
2022-11-01T18:49:02.408Z,3.03
2022-11-01T18:51:34.180Z,3.88
2022-11-01T18:54:28.748Z,4.18
2022-11-01T18:56:59.773Z,4.35
2022-11-01T18:59:35.243Z,4.20
2022-11-01T19:02:14.621Z,4.30
2022-11-01T19:04:44.914Z,3.50
2022-11-01T19:07:16.926Z,4.40
2022-11-01T19:10:04.052Z,4.57
2022-11-01T19:12:37.885Z,5.78
2022-11-01T19:15:20.874Z,4.57
2022-11-01T19:18:00.449Z,4.82
2022-11-01T19:20:54.409Z,4.18
2022-11-01T19:23:35.825Z,4.00
2022-11-01T19:26:06.516Z,4.20
2022-11-01T19:28:38.760Z,3.78
2022-11-01T19:31:34.645Z,3.45
2022-11-01T19:34:05.731Z,4.90
2022-11-01T19:36:43.371Z,5.03
2022-11-01T19:39:25.991Z,4.18
2022-11-01T19:42:00.209Z,4.63
2022-11-01T19:44:30.399Z,3.05
2022-11-01T19:47:31.034Z,3.88
2022-11-01T19:50:00.990Z,4.57
2022-11-01T19:52:44.512Z,4.82
2022-11-01T19:55:38.435Z,4.05
2022-11-01T19:58:28.057Z,3.92
2022-11-01T20:01:03.974Z,3.33
2022-11-01T20:03:49.805Z,3.65
2022-11-01T20:06:30.874Z,3.83
2022-11-01T20:09:08.115Z,3.92
2022-11-01T20:11:38.412Z,3.03
2022-11-01T20:14:08.400Z,4.15
2022-11-01T20:16:38.475Z,2.78
2022-11-01T20:19:10.853Z,4.53
2022-11-01T20:21:43.484Z,3.65
2022-11-01T20:24:13.787Z,3.47
2022-11-01T20:26:43.931Z,4.15
2022-11-01T20:29:13.910Z,4.22
2022-11-01T20:31:43.869Z,4.60
2022-11-01T20:34:13.826Z,5.35
2022-11-01T20:36:46.751Z,3.30
2022-11-01T20:39:24.987Z,4.00
2022-11-01T20:41:55.287Z,3.92
2022-11-01T20:44:25.437Z,2.80
2022-11-01T20:46:55.411Z,3.13
2022-11-01T20:49:25.734Z,3.55
2022-11-01T20:52:00.545Z,3.28
2022-11-01T20:54:44.086Z,4.70
2022-11-01T20:57:27.082Z,4.03
2022-11-01T20:59:58.614Z,3.75
2022-11-01T21:02:29.227Z,3.13
2022-11-01T21:05:08.026Z,2.67
2022-11-01T21:07:38.085Z,5.30
2022-11-01T21:10:33.213Z,4.35
2022-11-01T21:13:04.992Z,3.00
2022-11-01T21:15:41.591Z,3.20
2022-11-01T21:18:12.077Z,2.88
2022-11-01T21:20:49.933Z,3.60
2022-11-01T21:23:38.693Z,2.92
2022-11-01T21:26:18.568Z,3.53
2022-11-01T21:28:54.562Z,2.50
2022-11-01T21:31:32.717Z,3.80
2022-11-01T21:34:11.636Z,5.32
2022-11-01T21:36:46.056Z,4.18
2022-11-01T21:39:26.457Z,3.28
2022-11-01T21:42:06.146Z,2.90
2022-11-01T21:44:45.180Z,2.85
2022-11-01T21:47:22.512Z,3.47
2022-11-01T21:49:52.558Z,2.20
2022-11-01T21:52:22.698Z,2.47
2022-11-01T21:54:53.862Z,4.35
2022-11-01T21:57:23.875Z,4.00
2022-11-01T21:59:54.268Z,2.88
2022-11-01T22:02:24.546Z,3.67
2022-11-01T22:04:56.421Z,4.22
2022-11-01T22:07:26.285Z,3.75
2022-11-01T22:09:56.180Z,2.38
2022-11-01T22:12:26.053Z,4.07
2022-11-01T22:14:56.042Z,3.33
2022-11-01T22:17:26.066Z,2.75
2022-11-01T22:19:55.979Z,5.40
2022-11-01T22:22:25.895Z,3.25
2022-11-01T22:24:55.817Z,4.57
2022-11-01T22:27:25.719Z,4.30
2022-11-01T22:29:55.628Z,3.05
2022-11-01T22:32:26.024Z,3.17
2022-11-01T22:34:56.013Z,3.58
2022-11-01T22:37:27.162Z,2.83
2022-11-01T22:39:57.159Z,4.20
2022-11-01T22:42:27.102Z,4.50
2022-11-01T22:44:57.802Z,2.75
2022-11-01T22:47:30.644Z,3.45
2022-11-01T22:50:03.177Z,4.65
2022-11-01T22:52:36.235Z,4.43
2022-11-01T22:55:16.572Z,3.22
2022-11-01T22:58:12.874Z,2.95
2022-11-01T23:00:42.780Z,3.90
2022-11-01T23:03:16.170Z,3.03
2022-11-01T23:05:47.522Z,5.22
2022-11-01T23:08:32.028Z,3.40
2022-11-01T23:11:02.800Z,3.67
2022-11-01T23:13:57.653Z,3.25
2022-11-01T23:16:39.651Z,5.47
2022-11-01T23:19:19.748Z,2.15
2022-11-01T23:21:50.363Z,2.40
2022-11-01T23:24:20.308Z,4.15
2022-11-01T23:26:50.237Z,3.60
2022-11-01T23:29:20.285Z,4.82
2022-11-01T23:31:50.292Z,4.07
2022-11-01T23:34:20.673Z,3.85
2022-11-01T23:36:50.788Z,5.35
2022-11-01T23:39:20.829Z,4.47
2022-11-01T23:41:54.244Z,4.70
2022-11-01T23:44:27.224Z,3.38
2022-11-01T23:47:15.132Z,5.20
2022-11-01T23:49:45.126Z,4.07
2022-11-01T23:52:41.848Z,5.68
2022-11-01T23:55:39.156Z,3.78
2022-11-01T23:58:13.532Z,4.53
